createdAt,value
2019-02-10T00:01:10.109Z,12.73
2019-02-10T00:03:40.964Z,15.70
2019-02-10T00:06:10.555Z,14.07
2019-02-10T00:08:39.723Z,9.27
2019-02-10T00:11:08.923Z,14.63
2019-02-10T00:13:38.116Z,14.27
2019-02-10T00:16:10.467Z,17.33
2019-02-10T00:18:39.656Z,9.43
2019-02-10T00:21:08.823Z,15.57
2019-02-10T00:23:37.991Z,9.77
2019-02-10T00:26:07.213Z,16.27
2019-02-10T00:28:36.400Z,10.97
2019-02-10T00:31:05.572Z,11.20
2019-02-10T00:33:34.773Z,13.67
2019-02-10T00:36:04.018Z,11.83
2019-02-10T00:38:33.200Z,10.10
2019-02-10T00:41:02.394Z,15.23
2019-02-10T00:43:31.567Z,9.83
2019-02-10T00:46:00.759Z,14.73
2019-02-10T00:48:29.943Z,14.37
2019-02-10T00:50:59.213Z,12.63
2019-02-10T00:53:28.388Z,9.00
2019-02-10T00:55:57.574Z,14.90
2019-02-10T00:58:28.278Z,12.83
2019-02-10T01:00:57.455Z,12.13
2019-02-10T01:03:26.708Z,14.37
2019-02-10T01:05:55.905Z,13.73
2019-02-10T01:08:25.536Z,13.20
2019-02-10T01:10:54.723Z,11.53
2019-02-10T01:13:23.982Z,11.70
2019-02-10T01:15:53.147Z,15.30
2019-02-10T01:18:22.327Z,13.50
2019-02-10T01:20:51.535Z,11.17
2019-02-10T01:23:20.716Z,11.80
2019-02-10T01:25:49.907Z,10.03
2019-02-10T01:28:19.140Z,12.47
2019-02-10T01:30:48.315Z,18.93
2019-02-10T01:33:17.523Z,16.00
2019-02-10T01:35:46.694Z,17.23
2019-02-10T01:38:15.874Z,12.80
2019-02-10T01:40:45.082Z,9.40
2019-02-10T01:43:14.273Z,11.03
2019-02-10T01:45:43.421Z,19.87
2019-02-10T01:48:13.618Z,24.00
2019-02-10T01:50:42.795Z,8.97
2019-02-10T01:53:11.976Z,14.43
2019-02-10T01:55:41.151Z,20.20
2019-02-10T01:58:10.334Z,13.77
2019-02-10T02:00:39.564Z,17.43
2019-02-10T02:03:08.764Z,12.57
2019-02-10T02:05:37.935Z,11.00
2019-02-10T02:08:07.108Z,14.10
2019-02-10T02:10:36.298Z,12.03
2019-02-10T02:13:05.477Z,9.93
2019-02-10T02:15:34.653Z,12.70
2019-02-10T02:18:03.859Z,12.30
2019-02-10T02:20:33.018Z,16.27
2019-02-10T02:23:02.193Z,17.43
2019-02-10T02:25:31.391Z,11.17
2019-02-10T02:28:00.578Z,13.13
2019-02-10T02:30:29.752Z,14.67
2019-02-10T02:32:58.960Z,14.80
2019-02-10T02:35:28.138Z,18.83
2019-02-10T02:37:57.308Z,10.20
2019-02-10T02:40:26.502Z,13.20
2019-02-10T02:42:55.664Z,17.23
2019-02-10T02:45:24.838Z,13.30
2019-02-10T02:47:54.020Z,14.10
2019-02-10T02:50:23.183Z,11.93
2019-02-10T02:52:52.410Z,8.13
2019-02-10T02:55:21.597Z,9.00
2019-02-10T02:57:50.760Z,13.70
2019-02-10T03:00:19.945Z,10.97
2019-02-10T03:02:49.195Z,9.73
2019-02-10T03:05:18.359Z,8.93
2019-02-10T03:07:47.523Z,7.10
2019-02-10T03:10:16.696Z,8.90
2019-02-10T03:12:45.873Z,7.80
2019-02-10T03:15:15.118Z,6.87
2019-02-10T03:17:44.282Z,7.03
2019-02-10T03:20:13.435Z,7.20
2019-02-10T03:22:42.625Z,6.07
2019-02-10T03:25:11.832Z,10.93
2019-02-10T03:27:41.003Z,10.33
2019-02-10T03:30:11.577Z,4.90
2019-02-10T03:32:41.144Z,5.80
2019-02-10T03:35:10.379Z,7.60
2019-02-10T03:37:39.623Z,4.87
2019-02-10T03:40:10.248Z,9.50
2019-02-10T03:42:39.422Z,9.60
2019-02-10T03:45:09.643Z,8.07
2019-02-10T03:47:38.849Z,7.23
2019-02-10T03:50:09.745Z,12.50
2019-02-10T03:52:38.917Z,5.77
2019-02-10T03:55:12.342Z,6.00
2019-02-10T03:57:41.499Z,8.63
2019-02-10T04:00:13.879Z,5.90
2019-02-10T04:02:43.075Z,7.43
2019-02-10T04:05:12.248Z,4.73
2019-02-10T04:07:41.417Z,8.07
2019-02-10T04:10:11.073Z,9.43
2019-02-10T04:12:40.420Z,10.33
2019-02-10T04:15:10.596Z,8.33
2019-02-10T04:17:39.692Z,5.90
2019-02-10T04:20:09.636Z,7.20
2019-02-10T04:22:38.816Z,8.17
2019-02-10T04:25:08.150Z,7.47
2019-02-10T04:27:37.329Z,8.20
2019-02-10T04:30:09.584Z,7.17
2019-02-10T04:32:38.825Z,5.27
2019-02-10T04:35:07.996Z,8.83
2019-02-10T04:37:45.621Z,9.20
2019-02-10T04:40:08.349Z,10.67
2019-02-10T04:42:37.514Z,12.23
2019-02-10T04:45:06.819Z,7.90
2019-02-10T04:47:36.017Z,8.90
2019-02-10T04:50:06.340Z,10.37
2019-02-10T04:52:35.540Z,7.87
2019-02-10T04:55:05.862Z,8.67
2019-02-10T04:57:35.036Z,10.03
2019-02-10T05:00:06.423Z,6.00
2019-02-10T05:02:35.589Z,6.63
2019-02-10T05:05:05.509Z,4.17
2019-02-10T05:07:34.726Z,8.33
2019-02-10T05:10:03.887Z,6.80
2019-02-10T05:12:33.057Z,9.73
2019-02-10T05:15:02.255Z,5.07
2019-02-10T05:17:31.441Z,7.57
2019-02-10T05:20:00.620Z,8.47
2019-02-10T05:22:29.809Z,10.73
2019-02-10T05:24:58.926Z,8.03
2019-02-10T05:27:28.106Z,10.40
2019-02-10T05:29:57.329Z,11.27
2019-02-10T05:32:26.498Z,10.20
2019-02-10T05:34:55.680Z,10.77
2019-02-10T05:37:24.936Z,9.63
2019-02-10T05:39:54.107Z,7.60
2019-02-10T05:42:23.359Z,9.17
2019-02-10T05:44:52.558Z,12.93
2019-02-10T05:47:21.742Z,11.00
2019-02-10T05:49:50.839Z,9.00
2019-02-10T05:52:20.038Z,8.10
2019-02-10T05:54:49.137Z,12.53
2019-02-10T05:57:18.324Z,12.03
2019-02-10T05:59:47.511Z,10.87
2019-02-10T06:02:21.242Z,11.03
2019-02-10T06:04:50.416Z,11.73
2019-02-10T06:07:19.634Z,13.53
2019-02-10T06:09:48.808Z,12.63
2019-02-10T06:12:17.983Z,12.00
2019-02-10T06:14:47.264Z,10.20
2019-02-10T06:17:16.435Z,13.03
2019-02-10T06:19:45.653Z,11.57
2019-02-10T06:22:14.864Z,13.50
2019-02-10T06:24:44.055Z,11.53
2019-02-10T06:27:13.244Z,11.83
2019-02-10T06:29:42.500Z,10.73
2019-02-10T06:32:11.679Z,10.63
2019-02-10T06:34:40.856Z,9.97
2019-02-10T06:37:10.076Z,9.33
2019-02-10T06:39:39.351Z,6.30
2019-02-10T06:42:08.520Z,6.07
2019-02-10T06:44:37.737Z,4.13
2019-02-10T06:47:06.916Z,7.63
2019-02-10T06:49:36.103Z,4.20
2019-02-10T06:52:05.308Z,4.77
2019-02-10T06:54:34.571Z,3.57
2019-02-10T06:57:03.823Z,7.43
2019-02-10T06:59:40.250Z,4.37
2019-02-10T07:02:11.072Z,4.63
2019-02-10T07:04:40.253Z,5.10
2019-02-10T07:07:09.461Z,6.97
2019-02-10T07:09:38.566Z,4.10
2019-02-10T07:12:27.207Z,6.57
2019-02-10T07:14:59.427Z,5.07
2019-02-10T07:17:31.025Z,4.83
2019-02-10T07:20:37.599Z,4.97
2019-02-10T07:23:38.015Z,6.10
2019-02-10T07:26:09.799Z,5.60
2019-02-10T07:28:40.167Z,5.47
2019-02-10T07:31:09.408Z,5.67
2019-02-10T07:33:44.242Z,6.50
2019-02-10T07:36:31.072Z,5.73
2019-02-10T07:39:12.064Z,6.30
2019-02-10T07:41:46.802Z,7.17
2019-02-10T07:44:19.054Z,9.37
2019-02-10T07:47:06.336Z,7.70
2019-02-10T07:50:14.257Z,9.77
2019-02-10T07:53:07.615Z,10.13
2019-02-10T07:55:39.862Z,8.73
2019-02-10T07:58:14.932Z,8.80
2019-02-10T08:00:49.969Z,10.13
2019-02-10T08:03:27.874Z,6.87
2019-02-10T08:06:00.401Z,8.17
2019-02-10T08:08:49.571Z,7.10
2019-02-10T08:11:24.483Z,5.50
2019-02-10T08:14:14.524Z,4.93
2019-02-10T08:16:52.399Z,2.50
2019-02-10T08:19:42.432Z,2.27
2019-02-10T08:22:17.250Z,2.00
2019-02-10T08:24:58.036Z,1.80
2019-02-10T08:27:32.858Z,1.80
2019-02-10T08:30:24.250Z,1.83
2019-02-10T08:33:14.415Z,2.63
2019-02-10T08:36:01.554Z,4.73
2019-02-10T08:38:39.881Z,6.90
2019-02-10T08:41:23.562Z,3.30
2019-02-10T08:44:01.570Z,3.93
2019-02-10T08:46:33.801Z,5.60
2019-02-10T08:49:14.953Z,5.57
2019-02-10T08:52:01.766Z,5.30
2019-02-10T08:54:31.049Z,4.60
2019-02-10T08:57:00.286Z,4.37
2019-02-10T08:59:29.489Z,5.90
2019-02-10T09:01:58.752Z,5.70
2019-02-10T09:04:27.941Z,6.47
2019-02-10T09:06:57.127Z,5.53
2019-02-10T09:09:26.323Z,6.10
2019-02-10T09:11:55.510Z,8.63
2019-02-10T09:14:24.686Z,6.30
2019-02-10T09:16:53.895Z,3.80
2019-02-10T09:19:23.067Z,7.40
2019-02-10T09:21:52.245Z,4.97
2019-02-10T09:24:21.447Z,7.13
2019-02-10T09:26:50.625Z,4.50
2019-02-10T09:29:19.795Z,4.40
2019-02-10T09:31:49.015Z,4.00
2019-02-10T09:34:18.006Z,4.13
2019-02-10T09:36:47.192Z,3.83
2019-02-10T09:39:16.414Z,5.10
2019-02-10T09:41:45.619Z,4.80
2019-02-10T09:44:14.936Z,3.43
2019-02-10T09:46:44.352Z,6.33
2019-02-10T09:49:13.736Z,4.57
2019-02-10T09:51:43.007Z,5.30
2019-02-10T09:54:15.630Z,7.67
2019-02-10T09:56:46.740Z,8.10
2019-02-10T09:59:15.914Z,4.57
2019-02-10T10:01:46.950Z,5.33
2019-02-10T10:04:16.130Z,7.13
2019-02-10T10:06:45.315Z,7.13
2019-02-10T10:09:19.527Z,9.87
2019-02-10T10:11:45.409Z,6.00
2019-02-10T10:14:14.621Z,5.77
2019-02-10T10:16:43.858Z,6.93
2019-02-10T10:19:13.224Z,5.70
2019-02-10T10:21:42.417Z,3.80
2019-02-10T10:24:11.633Z,3.00
2019-02-10T10:26:40.850Z,3.17
2019-02-10T10:29:10.017Z,4.90
2019-02-10T10:31:39.239Z,5.63
2019-02-10T10:34:08.426Z,2.30
2019-02-10T10:36:37.635Z,3.33
2019-02-10T10:39:06.882Z,3.47
2019-02-10T10:41:36.078Z,2.60
2019-02-10T10:44:06.232Z,2.57
2019-02-10T10:46:38.801Z,2.43
2019-02-10T10:49:08.053Z,4.00
2019-02-10T10:51:37.195Z,4.43
2019-02-10T10:54:06.386Z,4.30
2019-02-10T10:56:35.566Z,3.70
2019-02-10T10:59:04.736Z,2.43
2019-02-10T11:01:33.995Z,3.80
2019-02-10T11:04:03.152Z,4.87
2019-02-10T11:06:33.985Z,2.30
2019-02-10T11:09:04.939Z,2.97
2019-02-10T11:11:34.177Z,2.50
2019-02-10T11:14:03.416Z,4.17
2019-02-10T11:16:32.636Z,4.17
2019-02-10T11:19:01.776Z,4.97
2019-02-10T11:21:30.950Z,4.57
2019-02-10T11:24:00.182Z,5.57
2019-02-10T11:26:30.240Z,2.53
2019-02-10T11:29:00.706Z,3.33
2019-02-10T11:31:29.925Z,2.23
2019-02-10T11:33:59.093Z,1.87
2019-02-10T11:36:28.268Z,4.10
2019-02-10T11:38:57.477Z,2.73
2019-02-10T11:41:26.652Z,3.20
2019-02-10T11:43:55.829Z,2.00
2019-02-10T11:46:24.924Z,2.33
2019-02-10T11:48:54.090Z,1.60
2019-02-10T11:51:23.254Z,2.87
2019-02-10T11:53:58.243Z,2.10
2019-02-10T11:56:28.334Z,2.13
2019-02-10T11:58:57.522Z,2.60
2019-02-10T12:01:26.871Z,1.80
2019-02-10T12:03:56.038Z,1.77
2019-02-10T12:06:25.416Z,3.10
2019-02-10T12:08:54.622Z,2.30
2019-02-10T12:11:23.835Z,3.43
2019-02-10T12:13:53.012Z,2.00
2019-02-10T12:16:22.204Z,2.13
2019-02-10T12:18:51.378Z,1.97
2019-02-10T12:21:20.558Z,2.93
2019-02-10T12:23:49.738Z,5.40
2019-02-10T12:26:18.902Z,1.70
2019-02-10T12:28:48.117Z,5.43
2019-02-10T12:31:17.302Z,2.27
2019-02-10T12:33:46.476Z,1.70
2019-02-10T12:36:15.647Z,2.57
2019-02-10T12:38:44.836Z,2.60
2019-02-10T12:41:14.439Z,1.60
2019-02-10T12:43:43.662Z,4.73
2019-02-10T12:46:12.836Z,2.23
2019-02-10T12:48:42.031Z,2.03
2019-02-10T12:51:11.289Z,2.33
2019-02-10T12:53:40.500Z,4.83
2019-02-10T12:56:09.693Z,2.73
2019-02-10T12:58:38.886Z,3.30
2019-02-10T13:01:08.099Z,3.23
2019-02-10T13:03:37.243Z,2.07
2019-02-10T13:06:06.431Z,1.93
2019-02-10T13:08:35.627Z,2.13
2019-02-10T13:11:04.885Z,4.83
2019-02-10T13:13:34.061Z,2.40
2019-02-10T13:16:03.227Z,4.43
2019-02-10T13:18:32.422Z,2.27
2019-02-10T13:21:01.578Z,2.10
2019-02-10T13:23:30.779Z,4.03
2019-02-10T13:25:59.952Z,5.40
2019-02-10T13:28:29.123Z,1.63
2019-02-10T13:30:58.334Z,1.57
2019-02-10T13:33:27.530Z,1.40
2019-02-10T13:35:56.692Z,1.37
2019-02-10T13:38:25.855Z,3.37
2019-02-10T13:40:55.048Z,1.77
2019-02-10T13:43:24.234Z,2.43
2019-02-10T13:45:53.486Z,1.40
2019-02-10T13:48:22.645Z,1.53
2019-02-10T13:50:51.824Z,4.07
2019-02-10T13:53:21.044Z,2.13
2019-02-10T13:55:50.171Z,2.03
2019-02-10T13:58:19.379Z,3.70
2019-02-10T14:00:48.564Z,1.77
2019-02-10T14:03:17.718Z,2.17
2019-02-10T14:05:46.911Z,2.63
2019-02-10T14:08:16.075Z,1.97
2019-02-10T14:10:45.242Z,1.53
2019-02-10T14:13:14.417Z,3.10
2019-02-10T14:15:43.588Z,2.00
2019-02-10T14:18:12.760Z,3.17
2019-02-10T14:20:41.957Z,1.87
2019-02-10T14:23:11.159Z,1.30
2019-02-10T14:25:40.358Z,2.00
2019-02-10T14:28:09.533Z,1.90
2019-02-10T14:30:38.707Z,0.80
2019-02-10T14:33:07.884Z,0.97
2019-02-10T14:35:37.073Z,1.00
2019-02-10T14:38:06.250Z,0.97
2019-02-10T14:40:35.451Z,0.80
2019-02-10T14:43:04.637Z,0.73
2019-02-10T14:45:33.814Z,1.50
2019-02-10T14:48:03.024Z,2.23
2019-02-10T14:50:32.207Z,1.07
2019-02-10T14:53:01.378Z,1.60
2019-02-10T14:55:30.582Z,1.77
2019-02-10T14:57:59.786Z,1.43
2019-02-10T15:00:28.971Z,1.00
2019-02-10T15:02:58.158Z,1.20
2019-02-10T15:05:28.344Z,2.10
2019-02-10T15:07:57.599Z,1.50
2019-02-10T15:10:26.795Z,2.30
2019-02-10T15:12:55.949Z,2.97
2019-02-10T15:15:25.120Z,2.23
2019-02-10T15:17:55.185Z,2.83
2019-02-10T15:20:24.404Z,5.53
2019-02-10T15:22:53.555Z,1.60
2019-02-10T15:25:22.738Z,2.00
2019-02-10T15:27:51.937Z,3.90
2019-02-10T15:30:21.102Z,4.43
2019-02-10T15:32:50.294Z,2.03
2019-02-10T15:35:19.496Z,2.47
2019-02-10T15:37:48.661Z,3.70
2019-02-10T15:40:17.832Z,0.80
2019-02-10T15:42:47.013Z,0.77
2019-02-10T15:45:16.182Z,0.90
2019-02-10T15:47:45.342Z,0.90
2019-02-10T15:50:15.220Z,2.80
2019-02-10T15:52:44.366Z,2.87
2019-02-10T15:55:14.269Z,2.20
2019-02-10T15:57:43.452Z,2.83
2019-02-10T16:00:15.865Z,0.67
2019-02-10T16:02:45.048Z,1.43
2019-02-10T16:05:14.253Z,1.70
2019-02-10T16:07:43.424Z,2.90
2019-02-10T16:10:12.665Z,1.23
2019-02-10T16:12:42.782Z,5.87
2019-02-10T16:15:12.791Z,4.13
2019-02-10T16:17:41.967Z,4.53
2019-02-10T16:20:15.132Z,1.13
2019-02-10T16:22:44.317Z,3.63
2019-02-10T16:25:13.487Z,0.80
2019-02-10T16:27:42.696Z,1.80
2019-02-10T16:30:16.884Z,1.40
2019-02-10T16:32:49.989Z,0.77
2019-02-10T16:35:17.034Z,1.03
2019-02-10T16:37:46.190Z,1.23
2019-02-10T16:40:18.101Z,3.27
2019-02-10T16:42:47.301Z,3.93
2019-02-10T16:45:16.470Z,1.50
2019-02-10T16:47:45.655Z,2.53
2019-02-10T16:50:18.270Z,2.97
2019-02-10T16:52:47.438Z,2.07
2019-02-10T16:55:18.987Z,1.03
2019-02-10T16:57:48.246Z,3.37
2019-02-10T17:00:17.772Z,2.30
2019-02-10T17:02:46.996Z,3.77
2019-02-10T17:05:16.172Z,2.23
2019-02-10T17:07:45.360Z,1.67
2019-02-10T17:10:16.161Z,0.73
2019-02-10T17:12:45.340Z,1.77
2019-02-10T17:15:14.648Z,2.67
2019-02-10T17:17:43.806Z,1.50
2019-02-10T17:20:13.826Z,2.53
2019-02-10T17:22:43.037Z,2.85
2019-02-10T17:25:29.277Z,3.00
2019-02-10T17:27:58.447Z,1.00
2019-02-10T17:30:27.613Z,2.90
2019-02-10T17:32:56.802Z,4.07
2019-02-10T17:35:29.053Z,3.80
2019-02-10T17:37:58.218Z,3.57
2019-02-10T17:40:33.230Z,6.80
2019-02-10T17:43:03.163Z,4.90
2019-02-10T17:45:32.579Z,1.63
2019-02-10T17:48:07.778Z,4.63
2019-02-10T17:50:38.755Z,4.53
2019-02-10T17:53:07.943Z,2.80
2019-02-10T17:55:37.147Z,4.90
2019-02-10T17:58:06.316Z,3.03
2019-02-10T18:00:37.131Z,5.12
2019-02-10T18:03:06.314Z,6.67
2019-02-10T18:05:35.487Z,2.80
2019-02-10T18:08:04.668Z,5.50
2019-02-10T18:10:33.906Z,6.17
2019-02-10T18:13:03.063Z,3.13
2019-02-10T18:15:49.153Z,3.15
2019-02-10T18:18:31.791Z,5.50
2019-02-10T18:21:02.620Z,3.33
2019-02-10T18:23:48.552Z,4.12
2019-02-10T18:26:25.442Z,5.17
2019-02-10T18:28:56.265Z,5.08
2019-02-10T18:31:28.124Z,3.83
2019-02-10T18:34:11.160Z,3.17
2019-02-10T18:36:58.014Z,3.45
2019-02-10T18:39:34.564Z,2.42
2019-02-10T18:42:20.748Z,3.05
2019-02-10T18:44:47.176Z,7.65
2019-02-10T18:47:33.036Z,2.27
2019-02-10T18:50:09.592Z,6.75
2019-02-10T18:52:40.401Z,5.12
2019-02-10T18:55:11.151Z,7.10
2019-02-10T18:57:53.991Z,7.33
2019-02-10T19:00:27.648Z,3.15
2019-02-10T19:03:04.824Z,3.37
2019-02-10T19:05:35.669Z,12.30
2019-02-10T19:08:09.185Z,3.83
2019-02-10T19:10:45.924Z,6.10
2019-02-10T19:13:19.315Z,8.45
2019-02-10T19:15:59.115Z,7.27
2019-02-10T19:18:40.081Z,5.75
2019-02-10T19:21:27.024Z,5.00
2019-02-10T19:23:57.845Z,8.20
2019-02-10T19:26:44.810Z,8.80
2019-02-10T19:29:21.263Z,6.17
2019-02-10T19:31:57.783Z,8.07
2019-02-10T19:34:28.725Z,5.73
2019-02-10T19:36:59.420Z,6.43
2019-02-10T19:39:45.527Z,4.20
2019-02-10T19:42:22.233Z,4.17
2019-02-10T19:45:09.485Z,5.27
2019-02-10T19:47:48.864Z,5.70
2019-02-10T19:50:19.689Z,9.23
2019-02-10T19:52:56.483Z,5.70
2019-02-10T19:55:32.926Z,4.80
2019-02-10T19:58:03.843Z,5.97
2019-02-10T20:00:34.644Z,7.27
2019-02-10T20:03:08.258Z,2.33
2019-02-10T20:05:55.465Z,3.80
2019-02-10T20:08:37.892Z,4.40
2019-02-10T20:11:08.705Z,2.83
2019-02-10T20:13:41.931Z,3.73
2019-02-10T20:16:15.828Z,5.90
2019-02-10T20:18:46.643Z,6.47
2019-02-10T20:21:26.491Z,5.37
2019-02-10T20:24:00.328Z,6.07
2019-02-10T20:26:45.978Z,7.83
2019-02-10T20:29:19.489Z,4.43
2019-02-10T20:31:50.319Z,4.70
2019-02-10T20:34:23.927Z,2.47
2019-02-10T20:36:54.753Z,5.73
2019-02-10T20:39:25.644Z,6.60
2019-02-10T20:42:12.205Z,7.40
2019-02-10T20:44:37.937Z,3.60
2019-02-10T20:47:11.380Z,4.90
2019-02-10T20:49:47.779Z,2.83
2019-02-10T20:52:21.430Z,8.10
2019-02-10T20:55:07.325Z,8.00
2019-02-10T20:57:46.889Z,6.73
2019-02-10T21:00:20.222Z,8.00
2019-02-10T21:02:51.039Z,2.27
2019-02-10T21:05:30.648Z,2.93
2019-02-10T21:08:19.830Z,1.60
2019-02-10T21:10:59.796Z,6.20
2019-02-10T21:13:39.374Z,9.77
2019-02-10T21:16:10.222Z,9.10
2019-02-10T21:18:43.553Z,6.73
2019-02-10T21:21:17.224Z,6.33
2019-02-10T21:23:53.716Z,6.77
2019-02-10T21:26:36.883Z,4.23
2019-02-10T21:29:16.669Z,7.33
2019-02-10T21:31:50.170Z,8.20
2019-02-10T21:34:30.078Z,3.83
2019-02-10T21:37:03.882Z,5.27
2019-02-10T21:39:40.670Z,7.43
2019-02-10T21:42:11.510Z,11.13
2019-02-10T21:44:47.992Z,5.03
2019-02-10T21:47:27.553Z,11.67
2019-02-10T21:49:56.744Z,8.10
2019-02-10T21:52:25.919Z,12.40
2019-02-10T21:54:55.109Z,11.90
2019-02-10T21:57:24.324Z,13.90
2019-02-10T21:59:53.502Z,9.80
2019-02-10T22:02:22.975Z,12.23
2019-02-10T22:04:52.155Z,8.50
2019-02-10T22:07:21.343Z,15.90
2019-02-10T22:09:50.536Z,9.87
2019-02-10T22:12:19.730Z,18.17
2019-02-10T22:14:48.913Z,12.27
2019-02-10T22:17:18.098Z,10.73
2019-02-10T22:19:47.290Z,11.30
2019-02-10T22:22:16.474Z,11.87
2019-02-10T22:24:45.652Z,12.33
2019-02-10T22:27:14.847Z,16.23
2019-02-10T22:29:44.037Z,12.10
2019-02-10T22:32:13.217Z,7.00
2019-02-10T22:34:42.437Z,9.43
2019-02-10T22:37:12.101Z,6.23
2019-02-10T22:39:41.414Z,16.00
2019-02-10T22:42:10.602Z,11.80
2019-02-10T22:44:39.807Z,13.50
2019-02-10T22:47:08.907Z,13.23
2019-02-10T22:49:38.083Z,7.57
2019-02-10T22:52:07.285Z,12.00
2019-02-10T22:54:36.476Z,11.43
2019-02-10T22:57:05.658Z,15.93
2019-02-10T22:59:34.871Z,13.03
2019-02-10T23:02:04.387Z,5.23
2019-02-10T23:04:33.598Z,5.73
2019-02-10T23:07:02.876Z,4.60
2019-02-10T23:09:32.043Z,6.17
2019-02-10T23:12:01.228Z,6.07
2019-02-10T23:14:30.496Z,6.07
2019-02-10T23:16:59.675Z,2.20
2019-02-10T23:19:28.846Z,6.40
2019-02-10T23:21:58.071Z,6.07
2019-02-10T23:24:27.287Z,5.37
2019-02-10T23:26:56.471Z,2.67
2019-02-10T23:29:25.661Z,9.57
2019-02-10T23:31:54.836Z,8.70
2019-02-10T23:34:24.009Z,7.47
2019-02-10T23:36:53.212Z,6.60
2019-02-10T23:39:22.379Z,9.90
2019-02-10T23:41:51.544Z,4.43
2019-02-10T23:44:20.750Z,10.97
2019-02-10T23:46:49.941Z,7.43
2019-02-10T23:49:19.128Z,4.70
2019-02-10T23:51:48.364Z,6.23
2019-02-10T23:54:17.540Z,5.10
2019-02-10T23:56:47.374Z,6.10
2019-02-10T23:59:16.590Z,10.73
